RYR45BN LZKZ-LKPR
Flight info
| Callsign | RYR45BN |
|---|---|
| Flight time | 0h 55m |
| Altitude | 30000 |
| Route | TAKOS DCT LALES DCT KATQA DCT BNO DCT TUMKA DCT VLM |
| Aircraft | B738/M-SDE2E3FGHIRWXY/LB1 |
Departure
| Time | 2026-04-22 17:27 |
|---|---|
| Airport | Košice International Airport (LZKZ) |
Arrival
| Time | 2026-04-22 18:22 |
|---|---|
| Airport | Václav Havel Airport Prague (LKPR) |
| Time | Latitude | Longitude | Altitude | Speed | Heading |
|---|---|---|---|---|---|
| 2026-04-22 16:54 | 48.67332 | 21.23849 | 756 ft | 0 kts | 233° |
| 2026-04-22 17:18 | 48.67331 | 21.23849 | 756 ft | 0 kts | 228° |
| 2026-04-22 17:19 | 48.67308 | 21.23857 | 753 ft | 4 kts | 133° |
| 2026-04-22 17:19 | 48.67294 | 21.23992 | 756 ft | 11 kts | 103° |
| 2026-04-22 17:20 | 48.67261 | 21.24207 | 755 ft | 11 kts | 103° |
| 2026-04-22 17:20 | 48.67200 | 21.24610 | 754 ft | 18 kts | 102° |
| 2026-04-22 17:21 | 48.67154 | 21.24741 | 756 ft | 14 kts | 153° |
| 2026-04-22 17:21 | 48.66965 | 21.24694 | 757 ft | 13 kts | 193° |
| 2026-04-22 17:22 | 48.66788 | 21.24635 | 757 ft | 15 kts | 192° |
| 2026-04-22 17:22 | 48.66661 | 21.24590 | 753 ft | 20 kts | 193° |
| 2026-04-22 17:22 | 48.66389 | 21.24495 | 756 ft | 19 kts | 194° |
| 2026-04-22 17:23 | 48.66256 | 21.24448 | 756 ft | 20 kts | 192° |
| 2026-04-22 17:23 | 48.65963 | 21.24344 | 756 ft | 24 kts | 192° |
| 2026-04-22 17:23 | 48.65807 | 21.24289 | 755 ft | 23 kts | 193° |
| 2026-04-22 17:24 | 48.65656 | 21.24236 | 753 ft | 22 kts | 192° |
| 2026-04-22 17:24 | 48.65508 | 21.24186 | 755 ft | 21 kts | 193° |
| 2026-04-22 17:24 | 48.65365 | 21.24137 | 753 ft | 21 kts | 193° |
| 2026-04-22 17:24 | 48.65226 | 21.24089 | 756 ft | 20 kts | 193° |
| 2026-04-22 17:25 | 48.65092 | 21.24042 | 756 ft | 20 kts | 193° |
| 2026-04-22 17:25 | 48.64963 | 21.23991 | 756 ft | 19 kts | 206° |
| 2026-04-22 17:25 | 48.64901 | 21.23849 | 755 ft | 15 kts | 269° |
| 2026-04-22 17:25 | 48.64941 | 21.23714 | 756 ft | 14 kts | 312° |
| 2026-04-22 17:26 | 48.64984 | 21.23658 | 757 ft | 3 kts | 346° |
| 2026-04-22 17:26 | 48.65014 | 21.23668 | 757 ft | 16 kts | 12° |
| 2026-04-22 17:26 | 48.65427 | 21.23812 | 755 ft | 107 kts | 12° |
| 2026-04-22 17:26 | 48.66438 | 21.24175 | 873 ft | 181 kts | 14° |
| 2026-04-22 17:27 | 48.67708 | 21.24699 | 1955 ft | 188 kts | 14° |
| 2026-04-22 17:27 | 48.68994 | 21.25198 | 3174 ft | 192 kts | 14° |
| 2026-04-22 17:27 | 48.70260 | 21.25702 | 4488 ft | 185 kts | 13° |
| 2026-04-22 17:27 | 48.71496 | 21.26154 | 5671 ft | 185 kts | 13° |
| 2026-04-22 17:28 | 48.72821 | 21.26584 | 6360 ft | 200 kts | 12° |
| 2026-04-22 17:28 | 48.74199 | 21.27018 | 7047 ft | 205 kts | 12° |
| 2026-04-22 17:28 | 48.75636 | 21.27228 | 7670 ft | 211 kts | 353° |
| 2026-04-22 17:28 | 48.77000 | 21.26503 | 7961 ft | 217 kts | 328° |
| 2026-04-22 17:29 | 48.78042 | 21.24669 | 8020 ft | 248 kts | 297° |
| 2026-04-22 17:29 | 48.78436 | 21.21995 | 8006 ft | 277 kts | 270° |
| 2026-04-22 17:29 | 48.78038 | 21.19080 | 8012 ft | 285 kts | 257° |
| 2026-04-22 17:29 | 48.77458 | 21.16215 | 8008 ft | 283 kts | 255° |
| 2026-04-22 17:30 | 48.76842 | 21.13356 | 8310 ft | 287 kts | 255° |
| 2026-04-22 17:30 | 48.76210 | 21.10467 | 8908 ft | 289 kts | 255° |
| 2026-04-22 17:30 | 48.75580 | 21.07559 | 8972 ft | 289 kts | 255° |
| 2026-04-22 17:30 | 48.74960 | 21.04672 | 8999 ft | 287 kts | 255° |
| 2026-04-22 17:31 | 48.74355 | 21.01841 | 8989 ft | 285 kts | 255° |
| 2026-04-22 17:31 | 48.73743 | 20.98953 | 9264 ft | 290 kts | 255° |
| 2026-04-22 17:31 | 48.73129 | 20.96053 | 10252 ft | 289 kts | 255° |
| 2026-04-22 17:31 | 48.72502 | 20.93075 | 10770 ft | 308 kts | 255° |
| 2026-04-22 17:32 | 48.71833 | 20.89890 | 11299 ft | 323 kts | 255° |
| 2026-04-22 17:32 | 48.71144 | 20.86632 | 11928 ft | 328 kts | 255° |
| 2026-04-22 17:32 | 48.70454 | 20.83374 | 12078 ft | 327 kts | 255° |
| 2026-04-22 17:32 | 48.70036 | 20.80006 | 12132 ft | 328 kts | 273° |
| 2026-04-22 17:33 | 48.70148 | 20.77692 | 12609 ft | 329 kts | 278° |
| 2026-04-22 17:33 | 48.70470 | 20.73107 | 13835 ft | 332 kts | 279° |
| 2026-04-22 17:33 | 48.70721 | 20.69615 | 14606 ft | 336 kts | 279° |
| 2026-04-22 17:33 | 48.70974 | 20.66063 | 15359 ft | 341 kts | 279° |
| 2026-04-22 17:34 | 48.71223 | 20.62467 | 16094 ft | 346 kts | 278° |
| 2026-04-22 17:34 | 48.71470 | 20.58821 | 16879 ft | 350 kts | 278° |
| 2026-04-22 17:34 | 48.71715 | 20.55129 | 17628 ft | 354 kts | 278° |
| 2026-04-22 17:34 | 48.71959 | 20.51397 | 18385 ft | 359 kts | 278° |
| 2026-04-22 17:35 | 48.72203 | 20.47608 | 19005 ft | 364 kts | 278° |
| 2026-04-22 17:35 | 48.72449 | 20.43764 | 19646 ft | 368 kts | 278° |
| 2026-04-22 17:35 | 48.72696 | 20.39879 | 20291 ft | 373 kts | 278° |
| 2026-04-22 17:35 | 48.72944 | 20.35937 | 20917 ft | 378 kts | 278° |
| 2026-04-22 17:36 | 48.73194 | 20.31947 | 21508 ft | 383 kts | 278° |
| 2026-04-22 17:36 | 48.73446 | 20.27906 | 22095 ft | 388 kts | 278° |
| 2026-04-22 17:36 | 48.73696 | 20.23872 | 22686 ft | 392 kts | 278° |
| 2026-04-22 17:36 | 48.73952 | 20.19725 | 23281 ft | 397 kts | 278° |
| 2026-04-22 17:37 | 48.74207 | 20.15547 | 23798 ft | 402 kts | 278° |
| 2026-04-22 17:37 | 48.74464 | 20.11309 | 24264 ft | 406 kts | 278° |
| 2026-04-22 17:37 | 48.74723 | 20.07009 | 24759 ft | 410 kts | 278° |
| 2026-04-22 17:37 | 48.74983 | 20.02681 | 25255 ft | 413 kts | 278° |
| 2026-04-22 17:38 | 48.75242 | 19.98328 | 25829 ft | 414 kts | 278° |
| 2026-04-22 17:38 | 48.75499 | 19.93981 | 26428 ft | 414 kts | 278° |
| 2026-04-22 17:38 | 48.75755 | 19.89627 | 27014 ft | 415 kts | 278° |
| 2026-04-22 17:38 | 48.76007 | 19.85323 | 27579 ft | 416 kts | 278° |
| 2026-04-22 17:39 | 48.76261 | 19.80957 | 28069 ft | 418 kts | 277° |
| 2026-04-22 17:39 | 48.76517 | 19.76535 | 28597 ft | 420 kts | 278° |
| 2026-04-22 17:39 | 48.77021 | 19.67711 | 29787 ft | 420 kts | 277° |
| 2026-04-22 17:40 | 48.77269 | 19.63329 | 30139 ft | 424 kts | 277° |
| 2026-04-22 17:40 | 48.77773 | 19.54351 | 30118 ft | 426 kts | 277° |
| 2026-04-22 17:41 | 48.78260 | 19.45484 | 30124 ft | 422 kts | 277° |
| 2026-04-22 17:41 | 48.78748 | 19.36536 | 30140 ft | 427 kts | 277° |
| 2026-04-22 17:42 | 48.79232 | 19.27526 | 30133 ft | 428 kts | 277° |
| 2026-04-22 17:42 | 48.79624 | 19.20105 | 30137 ft | 423 kts | 277° |
| 2026-04-22 17:43 | 48.80167 | 19.09707 | 30152 ft | 426 kts | 277° |
| 2026-04-22 17:43 | 48.80628 | 19.00722 | 30148 ft | 427 kts | 277° |
| 2026-04-22 17:44 | 48.81876 | 18.92034 | 30168 ft | 419 kts | 295° |
| 2026-04-22 17:44 | 48.83970 | 18.83752 | 30155 ft | 421 kts | 295° |
| 2026-04-22 17:45 | 48.86037 | 18.75446 | 30153 ft | 420 kts | 295° |
| 2026-04-22 17:45 | 48.88102 | 18.67107 | 30145 ft | 422 kts | 295° |
| 2026-04-22 17:46 | 48.90166 | 18.58755 | 30164 ft | 423 kts | 295° |
| 2026-04-22 17:46 | 48.92220 | 18.50423 | 30169 ft | 424 kts | 295° |
| 2026-04-22 17:47 | 48.94283 | 18.42022 | 30171 ft | 425 kts | 295° |
| 2026-04-22 17:47 | 48.96350 | 18.33573 | 30174 ft | 425 kts | 295° |
| 2026-04-22 17:48 | 48.98058 | 18.26566 | 30159 ft | 424 kts | 295° |
| 2026-04-22 17:48 | 49.00450 | 18.16722 | 30191 ft | 424 kts | 295° |
| 2026-04-22 17:49 | 49.02487 | 18.08299 | 30173 ft | 424 kts | 295° |
| 2026-04-22 17:49 | 49.04509 | 17.99910 | 30191 ft | 424 kts | 295° |
| 2026-04-22 17:50 | 49.06538 | 17.91461 | 30169 ft | 425 kts | 295° |
| 2026-04-22 17:50 | 49.08253 | 17.84303 | 30168 ft | 434 kts | 296° |
| 2026-04-22 17:51 | 49.10684 | 17.74116 | 30181 ft | 441 kts | 295° |
| 2026-04-22 17:51 | 49.12431 | 17.66740 | 30182 ft | 440 kts | 295° |
| 2026-04-22 17:52 | 49.14501 | 17.57965 | 30176 ft | 438 kts | 295° |
| 2026-04-22 17:52 | 49.16531 | 17.49329 | 29931 ft | 428 kts | 295° |
| 2026-04-22 17:52 | 49.17529 | 17.45067 | 29618 ft | 423 kts | 295° |
| 2026-04-22 17:53 | 49.18514 | 17.40859 | 29338 ft | 421 kts | 295° |
| 2026-04-22 17:53 | 49.19501 | 17.36647 | 29068 ft | 422 kts | 295° |
| 2026-04-22 17:53 | 49.20491 | 17.32417 | 28796 ft | 421 kts | 295° |
| 2026-04-22 17:53 | 49.21472 | 17.28207 | 28510 ft | 417 kts | 295° |
| 2026-04-22 17:54 | 49.22438 | 17.24045 | 28251 ft | 411 kts | 295° |
| 2026-04-22 17:54 | 49.23375 | 17.19998 | 27998 ft | 406 kts | 295° |
| 2026-04-22 17:54 | 49.24311 | 17.15951 | 27682 ft | 401 kts | 295° |
| 2026-04-22 17:54 | 49.25240 | 17.11933 | 27337 ft | 398 kts | 295° |
| 2026-04-22 17:55 | 49.26158 | 17.07957 | 26994 ft | 394 kts | 295° |
| 2026-04-22 17:55 | 49.27066 | 17.04016 | 26661 ft | 391 kts | 295° |
| 2026-04-22 17:55 | 49.27967 | 17.00098 | 26335 ft | 388 kts | 295° |
| 2026-04-22 17:55 | 49.28859 | 16.96212 | 26016 ft | 384 kts | 295° |
| 2026-04-22 17:56 | 49.29741 | 16.92363 | 25705 ft | 381 kts | 294° |
| 2026-04-22 17:56 | 49.30614 | 16.88545 | 25388 ft | 378 kts | 294° |
| 2026-04-22 17:56 | 49.31477 | 16.84764 | 25100 ft | 374 kts | 294° |
| 2026-04-22 17:56 | 49.32331 | 16.81014 | 24843 ft | 372 kts | 294° |
| 2026-04-22 17:57 | 49.33171 | 16.77324 | 24523 ft | 370 kts | 294° |
| 2026-04-22 17:57 | 49.34021 | 16.73588 | 24154 ft | 371 kts | 294° |
| 2026-04-22 17:57 | 49.34871 | 16.69843 | 23777 ft | 370 kts | 294° |
| 2026-04-22 17:57 | 49.35709 | 16.66138 | 23311 ft | 365 kts | 294° |
| 2026-04-22 17:58 | 49.36530 | 16.62491 | 22868 ft | 357 kts | 294° |
| 2026-04-22 17:58 | 49.37332 | 16.58925 | 22418 ft | 350 kts | 294° |
| 2026-04-22 17:58 | 49.38119 | 16.55420 | 21989 ft | 346 kts | 294° |
| 2026-04-22 17:58 | 49.38903 | 16.51938 | 21582 ft | 344 kts | 294° |
| 2026-04-22 17:59 | 49.39670 | 16.48520 | 21193 ft | 341 kts | 294° |
| 2026-04-22 17:59 | 49.40439 | 16.45090 | 20803 ft | 338 kts | 294° |
| 2026-04-22 17:59 | 49.41200 | 16.41689 | 20425 ft | 335 kts | 294° |
| 2026-04-22 17:59 | 49.41953 | 16.38317 | 20049 ft | 332 kts | 294° |
| 2026-04-22 18:00 | 49.42449 | 16.36092 | 19790 ft | 331 kts | 294° |
| 2026-04-22 18:00 | 49.43441 | 16.31640 | 19303 ft | 327 kts | 294° |
| 2026-04-22 18:00 | 49.44173 | 16.28343 | 18931 ft | 325 kts | 294° |
| 2026-04-22 18:00 | 49.44902 | 16.25059 | 18576 ft | 323 kts | 294° |
| 2026-04-22 18:01 | 49.45624 | 16.21799 | 18161 ft | 320 kts | 294° |
| 2026-04-22 18:01 | 49.46336 | 16.18580 | 17740 ft | 317 kts | 294° |
| 2026-04-22 18:01 | 49.47033 | 16.15421 | 17352 ft | 314 kts | 294° |
| 2026-04-22 18:01 | 49.47731 | 16.12252 | 16953 ft | 311 kts | 294° |
| 2026-04-22 18:02 | 49.48421 | 16.09121 | 16545 ft | 309 kts | 294° |
| 2026-04-22 18:02 | 49.49110 | 16.05986 | 16169 ft | 308 kts | 294° |
| 2026-04-22 18:02 | 49.49796 | 16.02864 | 15780 ft | 306 kts | 294° |
| 2026-04-22 18:02 | 49.50474 | 15.99770 | 15402 ft | 304 kts | 294° |
| 2026-04-22 18:03 | 49.51144 | 15.96707 | 15032 ft | 301 kts | 294° |
| 2026-04-22 18:03 | 49.51808 | 15.93668 | 14667 ft | 299 kts | 294° |
| 2026-04-22 18:03 | 49.52468 | 15.90641 | 14294 ft | 296 kts | 294° |
| 2026-04-22 18:03 | 49.53121 | 15.87647 | 13919 ft | 294 kts | 294° |
| 2026-04-22 18:04 | 49.53769 | 15.84667 | 13513 ft | 292 kts | 294° |
| 2026-04-22 18:04 | 49.54411 | 15.81714 | 13107 ft | 290 kts | 294° |
| 2026-04-22 18:04 | 49.55047 | 15.78782 | 12710 ft | 288 kts | 293° |
| 2026-04-22 18:04 | 49.55672 | 15.75897 | 12315 ft | 286 kts | 293° |
| 2026-04-22 18:05 | 49.56297 | 15.73008 | 11929 ft | 284 kts | 293° |
| 2026-04-22 18:05 | 49.56917 | 15.70136 | 11561 ft | 281 kts | 293° |
| 2026-04-22 18:05 | 49.57535 | 15.67275 | 11321 ft | 281 kts | 293° |
| 2026-04-22 18:05 | 49.58157 | 15.64393 | 11262 ft | 285 kts | 293° |
| 2026-04-22 18:06 | 49.58781 | 15.61496 | 11233 ft | 284 kts | 293° |
| 2026-04-22 18:06 | 49.59401 | 15.58609 | 11221 ft | 283 kts | 293° |
| 2026-04-22 18:06 | 49.60017 | 15.55733 | 11220 ft | 283 kts | 293° |
| 2026-04-22 18:06 | 49.60636 | 15.52844 | 11222 ft | 284 kts | 293° |
| 2026-04-22 18:07 | 49.61248 | 15.49983 | 11232 ft | 283 kts | 293° |
| 2026-04-22 18:07 | 49.61872 | 15.47062 | 11227 ft | 283 kts | 293° |
| 2026-04-22 18:07 | 49.62489 | 15.44170 | 11234 ft | 283 kts | 293° |
| 2026-04-22 18:07 | 49.63096 | 15.41320 | 11235 ft | 284 kts | 293° |
| 2026-04-22 18:08 | 49.63712 | 15.38424 | 11219 ft | 284 kts | 292° |
| 2026-04-22 18:08 | 49.64327 | 15.35525 | 11230 ft | 284 kts | 293° |
| 2026-04-22 18:08 | 49.64943 | 15.32620 | 11245 ft | 284 kts | 292° |
| 2026-04-22 18:08 | 49.65555 | 15.29731 | 11227 ft | 284 kts | 292° |
| 2026-04-22 18:09 | 49.66170 | 15.26825 | 11241 ft | 284 kts | 292° |
| 2026-04-22 18:09 | 49.66782 | 15.23921 | 11225 ft | 284 kts | 292° |
| 2026-04-22 18:09 | 49.67391 | 15.21031 | 11235 ft | 283 kts | 292° |
| 2026-04-22 18:09 | 49.67994 | 15.18172 | 11244 ft | 284 kts | 293° |
| 2026-04-22 18:10 | 49.68604 | 15.15275 | 11232 ft | 284 kts | 292° |
| 2026-04-22 18:10 | 49.69221 | 15.12334 | 11245 ft | 283 kts | 292° |
| 2026-04-22 18:10 | 49.69818 | 15.09485 | 11120 ft | 280 kts | 292° |
| 2026-04-22 18:10 | 49.70456 | 15.06668 | 10812 ft | 276 kts | 301° |
| 2026-04-22 18:11 | 49.71523 | 15.04313 | 10629 ft | 265 kts | 313° |
| 2026-04-22 18:11 | 49.72680 | 15.02065 | 10321 ft | 267 kts | 313° |
| 2026-04-22 18:11 | 49.73834 | 14.99818 | 10270 ft | 268 kts | 312° |
| 2026-04-22 18:11 | 49.74986 | 14.97553 | 10236 ft | 266 kts | 312° |
| 2026-04-22 18:12 | 49.76116 | 14.95312 | 10145 ft | 262 kts | 312° |
| 2026-04-22 18:12 | 49.77223 | 14.93108 | 9859 ft | 260 kts | 312° |
| 2026-04-22 18:12 | 49.77964 | 14.91629 | 9624 ft | 261 kts | 312° |
| 2026-04-22 18:12 | 49.79452 | 14.88658 | 9200 ft | 260 kts | 311° |
| 2026-04-22 18:13 | 49.80551 | 14.86447 | 8917 ft | 259 kts | 311° |
| 2026-04-22 18:13 | 49.81641 | 14.84237 | 8617 ft | 258 kts | 311° |
| 2026-04-22 18:13 | 49.82716 | 14.82057 | 8327 ft | 257 kts | 311° |
| 2026-04-22 18:13 | 49.83799 | 14.79859 | 8051 ft | 256 kts | 311° |
| 2026-04-22 18:14 | 49.84874 | 14.77674 | 7781 ft | 255 kts | 311° |
| 2026-04-22 18:14 | 49.85949 | 14.75490 | 7490 ft | 254 kts | 311° |
| 2026-04-22 18:14 | 49.87021 | 14.73312 | 7181 ft | 254 kts | 310° |
| 2026-04-22 18:14 | 49.88095 | 14.71130 | 6801 ft | 256 kts | 310° |
| 2026-04-22 18:15 | 49.89178 | 14.68928 | 6430 ft | 258 kts | 310° |
| 2026-04-22 18:15 | 49.90271 | 14.66702 | 6012 ft | 259 kts | 310° |
| 2026-04-22 18:15 | 49.91354 | 14.64494 | 5596 ft | 255 kts | 310° |
| 2026-04-22 18:15 | 49.92415 | 14.62327 | 5177 ft | 250 kts | 310° |
| 2026-04-22 18:16 | 49.93358 | 14.60402 | 4799 ft | 246 kts | 310° |
| 2026-04-22 18:16 | 49.94379 | 14.58316 | 4482 ft | 238 kts | 310° |
| 2026-04-22 18:16 | 49.95351 | 14.56327 | 4263 ft | 225 kts | 310° |
| 2026-04-22 18:16 | 49.96265 | 14.54455 | 4095 ft | 212 kts | 310° |
| 2026-04-22 18:17 | 49.97127 | 14.52688 | 4001 ft | 197 kts | 311° |
| 2026-04-22 18:17 | 49.97937 | 14.51027 | 3989 ft | 189 kts | 311° |
| 2026-04-22 18:17 | 49.98718 | 14.49428 | 3978 ft | 183 kts | 311° |
| 2026-04-22 18:17 | 49.99482 | 14.47863 | 3996 ft | 182 kts | 311° |
| 2026-04-22 18:18 | 50.00248 | 14.46294 | 3992 ft | 181 kts | 311° |
| 2026-04-22 18:18 | 50.00991 | 14.44767 | 3984 ft | 175 kts | 311° |
| 2026-04-22 18:18 | 50.01720 | 14.43268 | 3984 ft | 172 kts | 311° |
| 2026-04-22 18:18 | 50.02455 | 14.41782 | 3758 ft | 180 kts | 311° |
| 2026-04-22 18:19 | 50.03252 | 14.40163 | 3172 ft | 192 kts | 310° |
| 2026-04-22 18:19 | 50.04028 | 14.38548 | 2904 ft | 180 kts | 310° |
| 2026-04-22 18:19 | 50.04726 | 14.37093 | 2688 ft | 157 kts | 310° |
| 2026-04-22 18:19 | 50.05349 | 14.35808 | 2478 ft | 138 kts | 311° |
| 2026-04-22 18:20 | 50.05897 | 14.34680 | 2301 ft | 130 kts | 311° |
| 2026-04-22 18:20 | 50.06442 | 14.33553 | 2132 ft | 132 kts | 311° |
| 2026-04-22 18:20 | 50.06993 | 14.32415 | 1931 ft | 132 kts | 309° |
| 2026-04-22 18:20 | 50.07551 | 14.31260 | 1796 ft | 137 kts | 309° |
| 2026-04-22 18:21 | 50.08118 | 14.30085 | 1598 ft | 134 kts | 309° |
| 2026-04-22 18:21 | 50.08675 | 14.28933 | 1384 ft | 133 kts | 309° |
| 2026-04-22 18:21 | 50.09219 | 14.27816 | 1225 ft | 126 kts | 309° |
| 2026-04-22 18:21 | 50.09699 | 14.26821 | 1208 ft | 97 kts | 307° |
| 2026-04-22 18:22 | 50.10017 | 14.26163 | 1192 ft | 62 kts | 307° |
| 2026-04-22 18:22 | 50.10219 | 14.25760 | 1187 ft | 27 kts | 320° |
| 2026-04-22 18:22 | 50.10353 | 14.25663 | 1184 ft | 0 kts | 351° |
| 2026-04-22 18:23 | 50.10358 | 14.25661 | 1184 ft | 4 kts | 352° |
| 2026-04-22 18:23 | 50.10411 | 14.25657 | 1182 ft | 9 kts | 4° |
| 2026-04-22 18:24 | 50.10544 | 14.25726 | 1175 ft | 13 kts | 25° |
| 2026-04-22 18:24 | 50.10619 | 14.25805 | 1174 ft | 13 kts | 38° |
| 2026-04-22 18:24 | 50.10738 | 14.25933 | 1171 ft | 10 kts | 34° |
| 2026-04-22 18:25 | 50.10797 | 14.25996 | 1172 ft | 10 kts | 35° |
| 2026-04-22 18:25 | 50.10859 | 14.26063 | 1171 ft | 12 kts | 34° |
| 2026-04-22 18:25 | 50.10927 | 14.26134 | 1168 ft | 11 kts | 35° |
| 2026-04-22 18:26 | 50.10935 | 14.26208 | 1168 ft | 3 kts | 150° |
| 2026-04-22 18:26 | 50.10921 | 14.26231 | 1170 ft | 3 kts | 126° |
| 2026-04-22 18:26 | 50.10911 | 14.26252 | 1169 ft | 0 kts | 127° |